»·PEaware :: N427LJ KSBA-KOXR

N427LJ :: KSBA-KOXR

FLIGHT INFORMATION

Flight Status: Arrived
Operator: Privately registered:
United States
More flights under this callsign
Pilot: Anonymous 27948 (27948)
Aircraft: CESSNA 172 SKYHAWK
(C172)
More flights by this aircraft type
Origin: KSBA Santa Barbara Mun
United States
Destination: KOXR Oxnard
United States
More flights between these airports :: More routes between these airports
Route: +KWANG CMA
File this flight plan on PilotEdge
Remarks:
Altitude:
(Current/Filed)
5,000ft
Speed:
(Current/Filed)
120kts
Departed: 25-May-20 12:28 PM
Arrived: 25-May-20 01:08 PM
Distance/Time
Traveled:
34nm/0:40
Distance/Time
To Go:
Arrived

Flight Plot

Page will automatically refresh every two minutes.


Map Options




Map Legend


Flown Route
Filed Route
Departure Airport
Arrival Airport
Navaid (VOR, NDB)
Fix

Horizontal Profiles

Position Reports

Time Latitude Longitude Heading Altitude Ground
Speed
25-May-20 12:10 34.432569 -119.835085 71 14ft 0kts
25-May-20 12:11 34.432569 -119.835085 71 14ft 0kts
25-May-20 12:12 34.432569 -119.835085 71 14ft 0kts
25-May-20 12:13 34.432569 -119.835085 71 14ft 0kts
25-May-20 12:14 34.432569 -119.835085 71 14ft 0kts
25-May-20 12:15 34.432569 -119.835085 71 14ft 0kts
25-May-20 12:16 34.432569 -119.835085 71 14ft 0kts
25-May-20 12:17 34.432569 -119.835085 71 14ft 0kts
25-May-20 12:18 34.432569 -119.835085 71 14ft 0kts
25-May-20 12:19 34.432569 -119.835085 71 14ft 0kts
25-May-20 12:20 34.432569 -119.835085 71 14ft 0kts
25-May-20 12:21 34.432569 -119.835085 71 14ft 0kts
25-May-20 12:22 34.432569 -119.835085 71 14ft 0kts
25-May-20 12:23 34.432215 -119.835217 219 14ft 8kts
25-May-20 12:23 34.430863 -119.839321 249 14ft 0kts
25-May-20 12:25 34.430789 -119.839540 247 14ft 0kts
25-May-20 12:25 34.430789 -119.839540 247 14ft 0kts
25-May-20 12:26 34.430789 -119.839540 247 14ft 0kts
25-May-20 12:27 34.423091 -119.838210 169 230ft 73kts
25-May-20 12:28 34.403091 -119.831508 161 1268ft 78kts
25-May-20 12:29 34.382139 -119.823461 161 2285ft 79kts
25-May-20 12:30 34.369767 -119.803119 99 2987ft 104kts
25-May-20 12:31 34.363269 -119.766355 103 2981ft 112kts
25-May-20 12:32 34.355606 -119.728660 104 2983ft 121kts
25-May-20 12:33 34.347080 -119.689043 104 2981ft 120kts
25-May-20 12:34 34.338600 -119.649860 104 2981ft 120kts
25-May-20 12:35 34.330082 -119.610569 104 2981ft 120kts
25-May-20 12:36 34.321542 -119.571246 104 2981ft 120kts
25-May-20 12:37 34.313005 -119.531999 104 2981ft 120kts
25-May-20 12:38 34.304254 -119.492800 104 3092ft 120kts
25-May-20 12:39 34.295872 -119.455979 104 3759ft 109kts
25-May-20 12:40 34.287255 -119.418415 105 3980ft 119kts
25-May-20 12:41 34.278719 -119.381380 105 3981ft 111kts
25-May-20 12:42 34.270437 -119.345424 105 3981ft 110kts
25-May-20 12:43 34.265237 -119.308791 94 3982ft 111kts
25-May-20 12:44 34.262746 -119.270986 94 3981ft 113kts
25-May-20 12:45 34.260242 -119.232919 94 3981ft 113kts
25-May-20 12:46 34.257742 -119.194827 94 3981ft 113kts
25-May-20 12:47 34.255233 -119.156530 94 3981ft 114kts
25-May-20 12:48 34.252715 -119.118027 94 3981ft 114kts
25-May-20 12:49 34.250207 -119.079551 94 3983ft 118kts
25-May-20 12:50 34.247541 -119.038622 94 3981ft 122kts
25-May-20 12:51 34.244861 -118.997411 94 3981ft 123kts
25-May-20 12:52 34.242186 -118.956193 94 3981ft 122kts
25-May-20 12:53 34.239586 -118.916091 94 3981ft 118kts
25-May-20 12:54 34.237032 -118.876721 94 3713ft 115kts
25-May-20 12:55 34.227474 -118.844692 170 3578ft 107kts
25-May-20 12:56 34.206585 -118.867589 244 3580ft 106kts
25-May-20 12:57 34.200361 -118.902404 264 3581ft 106kts
25-May-20 12:58 34.199062 -118.938160 269 3594ft 105kts
25-May-20 12:59 34.199051 -118.972072 270 3581ft 99kts
25-May-20 13:00 34.199308 -119.005166 270 3189ft 96kts
25-May-20 13:01 34.199583 -119.037939 270 2693ft 98kts
25-May-20 13:02 34.199851 -119.071363 270 2157ft 100kts
25-May-20 13:03 34.200106 -119.104591 270 1613ft 95kts
25-May-20 13:04 34.200318 -119.134636 270 1126ft 88kts
25-May-20 13:05 34.200519 -119.162977 270 666ft 75kts
25-May-20 13:06 34.200657 -119.186629 270 242ft 67kts
25-May-20 13:07 34.200809 -119.206053 270 38ft 33kts
25-May-20 13:08 34.200073 -119.207168 180 37ft 0kts
25-May-20 13:09 34.199719 -119.206793 129 37ft 7kts

Navigation Log

Ident Type
Flight plan parsing failed, navigation log unavailable